Time;durP1;ratioP1;P1;durP2;ratioP2;P2;SDS_P1;SDS_P2;PMS_P1;PMS_P2;Temp;Humidity;BMP_temperature;BMP_pressure;BME280_temperature;BME280_humidity;BME280_pressure;Samples;Min_cycle;Max_cycle;Signal;HPM_P1;HPM_P2
2023/01/07 00:01:35;;;;;;;7.63;4.97;;;10.80;99.90;;;;;;5034793;28;20435;-77
2023/01/07 00:04:05;;;;;;;7.78;4.65;;;10.80;99.90;;;;;;5034415;28;20022;-77
2023/01/07 00:06:36;;;;;;;10.18;4.57;;;10.80;99.90;;;;;;5034010;28;20557;-77
2023/01/07 00:09:06;;;;;;;7.75;4.57;;;10.80;99.90;;;;;;5034038;28;20034;-76
2023/01/07 00:11:42;;;;;;;8.80;5.35;;;10.80;99.90;;;;;;5033810;28;20060;-76
2023/01/07 00:14:12;;;;;;;7.00;4.13;;;10.80;99.90;;;;;;5034120;28;20018;-77
2023/01/07 00:16:41;;;;;;;8.57;4.10;;;10.80;99.90;;;;;;5033884;28;20033;-76
2023/01/07 00:19:15;;;;;;;5.65;3.70;;;10.80;99.90;;;;;;5034649;28;20025;-76
2023/01/07 00:21:46;;;;;;;7.78;4.55;;;10.80;99.90;;;;;;5033640;28;20120;-77
2023/01/07 00:24:15;;;;;;;11.05;4.40;;;10.80;99.90;;;;;;5035692;28;20032;-76
2023/01/07 00:26:40;;;;;;;9.48;4.07;;;12.50;99.90;;;;;;5033484;28;20083;-77
2023/01/07 00:29:09;;;;;;;5.80;4.20;;;10.90;99.90;;;;;;5033472;28;20022;-76
2023/01/07 00:31:38;;;;;;;;;;;10.90;99.90;;;;;;5033605;28;20205;-76
2023/01/07 00:34:08;;;;;;;7.53;4.03;;;10.80;99.90;;;;;;5033059;28;19908;-77
2023/01/07 00:36:42;;;;;;;7.22;3.85;;;10.80;99.90;;;;;;5032789;28;20183;-76
2023/01/07 00:39:20;;;;;;;7.25;3.83;;;11.20;99.90;;;;;;5032912;28;20134;-76
2023/01/07 00:44:31;;;;;;;5.45;3.45;;;10.70;99.90;;;;;;5034500;28;20272;-77
2023/01/07 00:47:01;;;;;;;8.05;3.53;;;10.70;99.90;;;;;;5033078;28;20107;-76
2023/01/07 00:49:27;;;;;;;5.60;3.05;;;10.70;99.90;;;;;;5034397;28;20107;-77
2023/01/07 00:51:52;;;;;;;6.38;2.60;;;10.70;99.90;;;;;;5034535;28;20023;-77
2023/01/07 00:54:22;;;;;;;7.05;3.60;;;10.70;99.90;;;;;;5033650;28;20407;-77
2023/01/07 00:56:53;;;;;;;3.85;2.58;;;10.70;99.90;;;;;;5033483;28;20029;-76
2023/01/07 00:59:22;;;;;;;4.68;2.78;;;10.70;99.90;;;;;;5032977;28;20392;-77
2023/01/07 01:01:48;;;;;;;5.53;2.92;;;;;;;;;;5034097;28;20108;-76
2023/01/07 01:04:14;;;;;;;5.25;2.72;;;10.70;99.90;;;;;;5034351;28;20034;-77
2023/01/07 01:06:39;;;;;;;6.03;2.47;;;10.60;99.90;;;;;;5034173;28;20036;-76
2023/01/07 01:09:08;;;;;;;6.82;2.90;;;10.70;99.90;;;;;;5034083;28;20557;-76
2023/01/07 01:11:33;;;;;;;5.95;2.38;;;10.60;99.90;;;;;;5034677;28;20481;-76
2023/01/07 01:13:59;;;;;;;5.10;3.03;;;10.60;99.90;;;;;;5032913;28;20084;-76
2023/01/07 01:16:27;;;;;;;4.05;2.28;;;10.60;99.90;;;;;;5034003;28;20052;-77
2023/01/07 01:18:53;;;;;;;3.78;2.15;;;10.50;99.90;;;;;;5032703;28;20048;-78
2023/01/07 01:21:24;;;;;;;6.30;2.78;;;10.50;99.90;;;;;;5032105;28;20048;-78
2023/01/07 01:23:53;;;;;;;4.55;2.55;;;10.50;99.90;;;;;;5034014;28;20029;-78
2023/01/07 01:26:18;;;;;;;8.45;2.28;;;10.50;99.90;;;;;;5034199;28;20021;-77
2023/01/07 01:28:46;;;;;;;4.65;3.05;;;10.40;99.90;;;;;;5034027;28;20029;-77
2023/01/07 01:31:12;;;;;;;6.37;2.37;;;10.40;99.90;;;;;;5033007;28;20068;-77
2023/01/07 01:33:38;;;;;;;3.60;2.53;;;10.40;99.90;;;;;;5033156;28;20279;-77
2023/01/07 01:36:09;;;;;;;7.93;3.40;;;10.40;99.90;;;;;;5033576;28;20388;-78
2023/01/07 01:38:41;;;;;;;6.65;2.90;;;10.40;99.90;;;;;;5032251;28;20040;-77
2023/01/07 01:41:15;;;;;;;3.92;2.85;;;10.50;99.90;;;;;;5032641;28;20025;-78
2023/01/07 01:43:44;;;;;;;6.57;2.90;;;10.40;99.90;;;;;;5032350;28;20103;-77
2023/01/07 01:46:42;;;;;;;6.88;3.75;;;10.40;99.90;;;;;;5033624;28;20056;-77
2023/01/07 01:49:32;;;;;;;5.90;3.05;;;10.40;99.90;;;;;;5025695;28;20040;-77
2023/01/07 01:52:07;;;;;;;4.13;2.70;;;10.40;99.90;;;;;;5034068;28;20057;-78
2023/01/07 01:54:36;;;;;;;6.93;3.10;;;;;;;;;;5032044;28;20536;-77
2023/01/07 01:57:05;;;;;;;5.28;3.00;;;10.40;99.90;;;;;;5033422;28;20028;-77
2023/01/07 01:59:39;;;;;;;7.72;3.03;;;10.30;99.90;;;;;;5033708;28;20029;-77
2023/01/07 02:02:10;;;;;;;8.15;2.90;;;10.30;99.90;;;;;;5033822;28;20025;-77
2023/01/07 02:04:42;;;;;;;6.57;3.83;;;10.80;99.90;;;;;;5032385;28;20040;-76
2023/01/07 02:07:16;;;;;;;8.93;3.50;;;10.30;99.90;;;;;;5032090;28;20472;-77
2023/01/07 02:09:48;;;;;;;7.63;2.95;;;10.30;99.90;;;;;;5033057;28;20029;-77
2023/01/07 02:12:20;;;;;;;5.47;3.55;;;10.40;99.90;;;;;;5033804;28;20073;-77
2023/01/07 02:15:19;;;;;;;5.10;3.53;;;10.40;99.90;;;;;;5033968;28;20037;-77
2023/01/07 02:18:09;;;;;;;9.68;3.45;;;10.30;99.90;;;;;;5032447;28;20514;-77
2023/01/07 02:21:08;;;;;;;6.82;3.28;;;10.30;99.90;;;;;;5033277;28;20034;-77
2023/01/07 02:24:11;;;;;;;8.77;3.72;;;10.30;99.90;;;;;;5034840;28;20030;-77
2023/01/07 02:27:13;;;;;;;7.15;3.85;;;10.30;99.90;;;;;;5037668;28;20029;-77
2023/01/07 02:29:39;;;;;;;7.30;3.42;;;10.40;99.90;;;;;;5037150;28;20026;-77
2023/01/07 02:32:35;;;;;;;6.40;3.08;;;10.30;99.90;;;;;;5037226;28;20030;-77
2023/01/07 02:35:30;;;;;;;8.00;3.53;;;10.30;99.90;;;;;;5035807;28;20026;-77
2023/01/07 02:38:21;;;;;;;6.75;2.60;;;10.30;99.90;;;;;;5037216;28;20400;-77
2023/01/07 02:41:27;;;;;;;7.50;3.33;;;10.30;99.90;;;;;;5036448;28;20021;-77
2023/01/07 02:44:10;;;;;;;7.07;2.95;;;10.20;99.90;;;;;;5035950;28;20035;-77
2023/01/07 02:47:05;;;;;;;7.55;3.10;;;10.10;99.90;;;;;;5035642;28;20029;-76
2023/01/07 02:49:34;;;;;;;5.75;2.78;;;10.10;99.90;;;;;;5036942;28;20560;-77
2023/01/07 02:52:18;;;;;;;7.18;2.80;;;10.10;99.90;;;;;;5036859;28;20029;-77
2023/01/07 02:54:47;;;;;;;6.07;3.83;;;10.10;99.90;;;;;;5035773;28;20056;-77
2023/01/07 02:57:16;;;;;;;6.82;3.08;;;10.10;99.90;;;;;;5037296;28;20025;-77
2023/01/07 03:00:18;;;;;;;8.50;3.35;;;10.10;99.90;;;;;;5035450;28;20025;-77
2023/01/07 03:03:14;;;;;;;7.43;2.92;;;10.10;99.90;;;;;;5037021;28;20104;-77
2023/01/07 03:06:16;;;;;;;5.72;2.15;;;10.00;99.90;;;;;;5035577;28;20369;-77
2023/01/07 03:09:06;;;;;;;9.73;3.30;;;10.10;99.90;;;;;;5035289;28;20037;-78
2023/01/07 03:11:46;;;;;;;9.18;2.13;;;10.10;99.90;;;;;;5035664;28;20148;-78
2023/01/07 03:14:56;;;;;;;10.70;3.22;;;10.10;99.90;;;;;;5036938;28;20076;-78
2023/01/07 03:17:30;;;;;;;6.78;2.60;;;10.10;99.90;;;;;;5036089;28;20108;-79
2023/01/07 03:19:59;;;;;;;7.20;2.65;;;10.10;99.90;;;;;;5035183;28;20496;-78
2023/01/07 03:22:32;;;;;;;7.22;2.60;;;10.00;99.90;;;;;;5036838;28;20029;-78
2023/01/07 03:25:04;;;;;;;6.53;2.55;;;10.10;99.90;;;;;;5036800;28;20108;-78
2023/01/07 03:27:35;;;;;;;7.10;2.38;;;10.00;99.90;;;;;;5036647;28;20026;-78
2023/01/07 03:30:13;;;;;;;8.88;2.10;;;10.00;99.90;;;;;;5035271;28;20041;-78
2023/01/07 03:32:53;;;;;;;7.05;3.08;;;10.00;99.90;;;;;;5035471;28;20018;-78
2023/01/07 03:35:26;;;;;;;8.13;2.75;;;9.90;99.90;;;;;;5034184;28;20388;-78
2023/01/07 03:37:59;;;;;;;9.68;2.88;;;9.90;99.90;;;;;;5035191;28;20056;-78
2023/01/07 03:40:24;;;;;;;6.25;2.50;;;9.90;99.90;;;;;;5036437;28;20026;-78
2023/01/07 03:42:50;;;;;;;7.80;2.40;;;9.90;99.90;;;;;;5036805;28;20048;-78
2023/01/07 03:45:23;;;;;;;8.80;3.15;;;11.00;99.90;;;;;;5036422;28;20112;-78
2023/01/07 03:47:57;;;;;;;6.63;2.47;;;9.80;99.90;;;;;;5035421;28;20392;-78
2023/01/07 03:50:25;;;;;;;7.15;2.30;;;9.80;99.90;;;;;;5035079;28;20017;-79
2023/01/07 03:52:51;;;;;;;4.57;2.60;;;9.80;99.90;;;;;;5034746;28;20093;-78
2023/01/07 03:55:23;;;;;;;10.55;2.20;;;9.80;99.90;;;;;;5034724;28;20045;-78
2023/01/07 03:57:51;;;;;;;7.20;2.20;;;9.80;99.90;;;;;;5034741;28;20025;-78
2023/01/07 04:00:17;;;;;;;6.75;2.75;;;9.70;99.90;;;;;;5035765;28;20540;-78
2023/01/07 04:02:43;;;;;;;10.43;3.80;;;9.70;99.90;;;;;;5035046;28;20060;-78
2023/01/07 04:05:12;;;;;;;6.90;2.28;;;9.80;99.90;;;;;;5035790;28;20029;-78
2023/01/07 04:07:39;;;;;;;5.80;2.28;;;;;;;;;;5035761;28;20029;-78
2023/01/07 04:10:06;;;;;;;9.68;3.03;;;9.70;99.90;;;;;;5034644;28;20037;-78
2023/01/07 04:12:37;;;;;;;5.55;2.15;;;9.70;99.90;;;;;;5035366;28;20048;-79
2023/01/07 04:15:07;;;;;;;6.72;2.13;;;;;;;;;;5034562;28;20400;-78
2023/01/07 04:17:35;;;;;;;4.28;1.60;;;9.70;99.90;;;;;;5034185;28;20029;-78
2023/01/07 04:20:11;;;;;;;8.15;2.42;;;9.70;99.90;;;;;;5034241;28;20044;-78
2023/01/07 04:22:39;;;;;;;8.23;2.20;;;9.60;99.90;;;;;;5036394;28;20025;-78
2023/01/07 04:25:05;;;;;;;6.28;2.33;;;9.70;99.90;;;;;;5034299;28;20018;-78
2023/01/07 04:27:32;;;;;;;7.70;2.40;;;9.70;99.90;;;;;;5034383;28;20416;-78
2023/01/07 04:30:01;;;;;;;8.73;2.88;;;9.70;99.90;;;;;;5034351;28;20445;-78
2023/01/07 04:32:26;;;;;;;6.07;2.28;;;9.70;99.90;;;;;;5034391;28;20029;-78
2023/01/07 04:34:52;;;;;;;6.28;2.47;;;9.80;99.90;;;;;;5036006;28;20022;-78
2023/01/07 04:37:23;;;;;;;8.35;2.05;;;9.70;99.90;;;;;;5034339;28;20487;-78
2023/01/07 04:39:51;;;;;;;5.95;2.10;;;9.70;99.90;;;;;;5035318;28;20029;-78
2023/01/07 04:42:17;;;;;;;5.55;2.40;;;9.70;99.90;;;;;;5034475;28;20022;-78
2023/01/07 04:44:42;;;;;;;2.92;1.73;;;10.40;99.90;;;;;;5033150;28;20026;-78
2023/01/07 04:47:08;;;;;;;3.95;2.40;;;9.70;99.90;;;;;;5034090;28;20026;-78
2023/01/07 04:49:33;;;;;;;6.63;2.45;;;9.70;99.90;;;;;;5034271;28;20108;-78
2023/01/07 04:51:59;;;;;;;6.68;2.33;;;9.70;99.90;;;;;;5032969;28;20075;-79
2023/01/07 04:54:24;;;;;;;5.47;2.17;;;10.60;99.90;;;;;;5034351;28;20397;-78
2023/01/07 04:56:50;;;;;;;6.00;1.95;;;9.70;99.90;;;;;;5034601;28;20457;-78
2023/01/07 04:59:16;;;;;;;4.70;2.22;;;9.80;99.90;;;;;;5032783;28;20075;-78
2023/01/07 05:01:41;;;;;;;5.35;1.98;;;9.80;99.90;;;;;;5032950;28;20014;-79
2023/01/07 05:04:07;;;;;;;9.18;2.88;;;10.60;99.90;;;;;;5033076;28;20033;-79
2023/01/07 05:06:32;;;;;;;3.40;1.60;;;9.80;99.90;;;;;;5032864;28;20388;-79
2023/01/07 05:08:58;;;;;;;6.95;1.70;;;9.80;99.90;;;;;;5034045;28;20029;-79
2023/01/07 05:11:24;;;;;;;3.63;1.83;;;9.80;99.90;;;;;;5033873;28;20075;-78
2023/01/07 05:13:49;;;;;;;7.10;2.78;;;10.00;99.90;;;;;;5032744;28;20473;-78
2023/01/07 05:16:15;;;;;;;4.82;1.52;;;10.60;99.90;;;;;;5032939;28;20025;-78
2023/01/07 05:18:41;;;;;;;13.02;2.40;;;9.90;99.90;;;;;;5033997;28;20029;-78
2023/01/07 05:21:09;;;;;;;6.80;2.25;;;11.00;99.90;;;;;;5032778;28;20400;-79
2023/01/07 05:23:35;;;;;;;7.35;2.00;;;10.20;99.90;;;;;;5034157;28;20379;-78
2023/01/07 05:26:00;;;;;;;5.55;1.48;;;9.80;99.90;;;;;;5032670;28;20096;-78
2023/01/07 05:28:26;;;;;;;3.30;2.13;;;10.10;99.90;;;;;;5032216;28;20026;-78
2023/01/07 05:30:51;;;;;;;7.57;1.58;;;9.80;99.90;;;;;;5033368;28;20314;-78
2023/01/07 05:33:17;;;;;;;5.13;1.40;;;10.60;99.90;;;;;;5033451;28;20021;-78
2023/01/07 05:35:43;;;;;;;4.00;1.48;;;9.80;99.90;;;;;;5032136;28;20384;-78
2023/01/07 05:38:08;;;;;;;4.65;2.03;;;9.90;99.90;;;;;;5033377;28;20028;-78
2023/01/07 05:40:34;;;;;;;5.07;1.20;;;9.90;99.90;;;;;;5033257;28;20025;-79
2023/01/07 05:42:59;;;;;;;3.72;1.10;;;9.90;99.90;;;;;;5033882;28;20026;-79
2023/01/07 05:45:25;;;;;;;3.40;1.23;;;9.90;99.90;;;;;;5032951;28;20030;-78
2023/01/07 05:47:51;;;;;;;4.45;1.55;;;12.70;99.90;;;;;;5031946;28;20025;-78
2023/01/07 05:50:16;;;;;;;6.43;1.35;;;9.90;99.90;;;;;;5034500;28;20099;-79
2023/01/07 05:52:42;;;;;;;6.85;1.02;;;10.00;99.90;;;;;;5033643;28;20028;-79
2023/01/07 05:55:07;;;;;;;4.63;1.00;;;9.90;99.90;;;;;;5033199;28;20030;-79
2023/01/07 05:57:33;;;;;;;5.57;1.63;;;9.90;99.90;;;;;;5033121;28;20030;-79
2023/01/07 05:59:58;;;;;;;2.38;1.13;;;9.90;99.90;;;;;;5035855;28;20116;-78
2023/01/07 06:02:24;;;;;;;3.95;1.02;;;9.80;99.90;;;;;;5035852;28;20021;-78
2023/01/07 06:04:50;;;;;;;4.43;1.15;;;9.90;99.90;;;;;;5035783;28;20032;-79
2023/01/07 06:07:15;;;;;;;2.72;1.00;;;10.50;99.90;;;;;;5035655;28;20025;-79
2023/01/07 06:09:41;;;;;;;5.93;1.65;;;9.80;99.90;;;;;;5035334;28;20057;-78
2023/01/07 06:12:07;;;;;;;3.70;0.52;;;10.10;99.90;;;;;;5036836;28;20079;-79
2023/01/07 06:14:32;;;;;;;0.95;0.45;;;9.80;99.90;;;;;;5036886;28;20025;-79
2023/01/07 06:16:58;;;;;;;4.28;0.95;;;9.80;99.90;;;;;;5036814;28;20105;-78
2023/01/07 06:19:25;;;;;;;1.92;0.82;;;10.20;99.90;;;;;;5035723;28;20017;-79
2023/01/07 06:21:50;;;;;;;5.72;1.33;;;9.80;99.90;;;;;;5036749;28;20373;-79
2023/01/07 06:24:16;;;;;;;3.50;0.82;;;9.80;99.90;;;;;;5036662;28;20028;-79
2023/01/07 06:26:42;;;;;;;2.92;0.50;;;9.80;99.90;;;;;;5036612;28;20022;-77
2023/01/07 06:29:09;;;;;;;1.67;0.77;;;9.80;99.90;;;;;;5036615;28;20028;-79
2023/01/07 06:31:35;;;;;;;3.65;0.60;;;9.70;99.90;;;;;;5035406;28;20137;-79
2023/01/07 06:34:01;;;;;;;3.42;0.82;;;9.70;99.90;;;;;;5036519;28;20025;-78
2023/01/07 06:36:26;;;;;;;2.35;0.57;;;9.70;99.90;;;;;;5035220;28;20109;-79
2023/01/07 06:38:52;;;;;;;0.98;0.63;;;9.80;99.90;;;;;;5035417;28;20017;-80
2023/01/07 06:41:17;;;;;;;3.15;0.60;;;9.70;99.90;;;;;;5036879;28;20571;-78
2023/01/07 06:43:43;;;;;;;4.25;0.80;;;9.70;99.90;;;;;;5036426;28;20491;-78
2023/01/07 06:46:08;;;;;;;2.33;0.40;;;9.70;99.90;;;;;;5036262;28;20025;-79
2023/01/07 06:48:34;;;;;;;1.30;0.73;;;9.80;99.90;;;;;;5035097;28;20041;-79
2023/01/07 06:50:59;;;;;;;2.72;0.77;;;10.50;99.90;;;;;;5036251;28;20026;-79
2023/01/07 06:53:25;;;;;;;2.35;0.63;;;9.70;99.90;;;;;;5036193;28;20029;-79
2023/01/07 06:55:50;;;;;;;4.60;0.68;;;9.70;99.90;;;;;;5036685;28;20025;-78
2023/01/07 06:58:17;;;;;;;1.58;0.32;;;9.60;99.90;;;;;;5036084;28;20096;-78
2023/01/07 07:00:42;;;;;;;2.45;0.38;;;9.60;99.90;;;;;;5035111;28;20029;-79
2023/01/07 07:03:08;;;;;;;3.63;0.43;;;9.60;99.90;;;;;;5036659;28;20365;-79
2023/01/07 07:05:34;;;;;;;2.47;0.20;;;9.60;99.90;;;;;;5036283;28;20026;-79
2023/01/07 07:08:00;;;;;;;1.08;0.10;;;9.50;99.90;;;;;;5034827;28;20021;-79
2023/01/07 07:10:26;;;;;;;1.05;0.40;;;10.80;99.90;;;;;;5034963;28;20022;-78
2023/01/07 07:12:51;;;;;;;5.32;0.40;;;9.50;99.90;;;;;;5035038;28;20030;-79
2023/01/07 07:15:17;;;;;;;3.58;0.35;;;9.40;99.90;;;;;;5035274;28;20025;-79
2023/01/07 07:17:43;;;;;;;2.35;0.22;;;9.40;99.90;;;;;;5034808;28;20029;-78
2023/01/07 07:20:09;;;;;;;1.83;0.40;;;9.40;99.90;;;;;;5036003;28;20100;-78
2023/01/07 07:22:34;;;;;;;1.20;0.40;;;9.50;99.90;;;;;;5034864;28;20108;-79
2023/01/07 07:25:00;;;;;;;1.38;0.10;;;9.50;99.90;;;;;;5035978;28;20492;-79
2023/01/07 07:27:25;;;;;;;1.15;0.30;;;10.20;99.90;;;;;;5036022;28;20481;-79
2023/01/07 07:29:51;;;;;;;1.00;0.25;;;9.60;99.90;;;;;;5036171;28;20014;-79
2023/01/07 07:32:17;;;;;;;3.35;0.22;;;9.60;99.90;;;;;;5035995;28;20423;-78
2023/01/07 07:34:42;;;;;;;5.50;0.00;;;9.60;99.90;;;;;;5036687;28;20025;-79
2023/01/07 07:37:08;;;;;;;3.72;0.63;;;9.60;99.90;;;;;;5036519;28;20067;-78
2023/01/07 07:39:33;;;;;;;3.90;0.20;;;9.70;99.90;;;;;;5034370;28;20115;-79
2023/01/07 07:42:02;;;;;;;5.88;0.03;;;9.70;99.90;;;;;;5034728;28;20026;-79
2023/01/07 07:44:28;;;;;;;;;;;9.80;99.90;;;;;;5037029;28;20025;-79
2023/01/07 07:46:53;;;;;;;0.70;0.00;;;9.80;99.90;;;;;;5034757;28;20327;-79
2023/01/07 07:49:19;;;;;;;2.38;0.00;;;9.80;99.90;;;;;;5034646;28;20021;-79
2023/01/07 07:51:44;;;;;;;1.75;0.00;;;9.90;99.90;;;;;;5035604;28;20022;-79
2023/01/07 07:54:10;;;;;;;0.47;0.00;;;10.60;99.90;;;;;;5036122;28;20025;-79
2023/01/07 07:56:35;;;;;;;0.32;0.00;;;9.90;99.90;;;;;;5034657;28;20476;-79
2023/01/07 07:59:01;;;;;;;0.73;0.30;;;9.90;99.90;;;;;;5034520;28;20032;-79
2023/01/07 08:01:27;;;;;;;2.20;0.10;;;10.50;99.90;;;;;;5034596;28;20025;-78
2023/01/07 08:03:52;;;;;;;1.55;0.05;;;10.00;99.90;;;;;;5034209;28;20492;-79
2023/01/07 08:06:18;;;;;;;0.88;0.00;;;10.00;99.90;;;;;;5034526;28;20025;-79
2023/01/07 08:08:43;;;;;;;5.05;0.45;;;10.00;99.90;;;;;;5033654;28;20018;-79
2023/01/07 08:11:09;;;;;;;3.15;0.10;;;10.30;99.90;;;;;;5035574;28;20014;-79
2023/01/07 08:13:34;;;;;;;0.73;0.38;;;10.10;99.90;;;;;;5034274;28;20029;-79
2023/01/07 08:16:00;;;;;;;0.90;0.00;;;10.10;99.90;;;;;;5034502;28;20024;-79
2023/01/07 08:18:25;;;;;;;1.05;0.00;;;10.10;99.90;;;;;;5035805;28;20030;-79
2023/01/07 08:20:51;;;;;;;0.38;0.00;;;10.10;99.90;;;;;;5035078;28;20096;-79
2023/01/07 08:23:17;;;;;;;1.38;0.50;;;10.00;99.90;;;;;;5035781;28;20112;-79
2023/01/07 08:25:43;;;;;;;0.95;0.00;;;10.00;99.90;;;;;;5035498;28;20033;-79
2023/01/07 08:28:10;;;;;;;3.03;0.00;;;10.10;99.90;;;;;;5035229;28;20032;-79
2023/01/07 08:30:36;;;;;;;0.80;0.00;;;10.70;99.90;;;;;;5035500;28;20022;-79
2023/01/07 08:33:06;;;;;;;0.32;0.15;;;10.10;99.90;;;;;;5035384;28;20029;-79
2023/01/07 08:35:32;;;;;;;0.98;0.30;;;10.10;99.90;;;;;;5035348;28;20025;-78
2023/01/07 08:38:03;;;;;;;2.85;0.05;;;10.10;99.90;;;;;;5034863;28;20476;-79
2023/01/07 08:40:29;;;;;;;1.13;0.43;;;10.10;99.90;;;;;;5033003;28;20396;-76
2023/01/07 08:43:03;;;;;;;0.85;0.10;;;10.10;99.90;;;;;;5036559;28;20171;-76
2023/01/07 08:45:29;;;;;;;1.35;0.00;;;10.10;99.90;;;;;;5034018;28;20033;-79
2023/01/07 08:47:56;;;;;;;0.13;0.00;;;10.10;99.90;;;;;;5033159;28;20021;-78
2023/01/07 08:50:26;;;;;;;0.03;0.00;;;10.10;99.90;;;;;;5034722;28;20097;-78
2023/01/07 08:52:52;;;;;;;2.17;0.20;;;10.10;99.90;;;;;;5034218;28;20022;-78
2023/01/07 08:55:18;;;;;;;0.75;0.10;;;10.10;99.90;;;;;;5034183;28;20366;-78
2023/01/07 08:57:44;;;;;;;1.10;0.00;;;10.10;99.90;;;;;;5034302;28;20079;-78
2023/01/07 09:00:10;;;;;;;0.85;0.00;;;10.20;99.90;;;;;;5033090;28;20013;-78
2023/01/07 09:02:36;;;;;;;0.50;0.00;;;10.20;99.90;;;;;;5034045;28;20044;-79
2023/01/07 09:05:01;;;;;;;0.45;0.00;;;10.20;99.90;;;;;;5033552;28;20496;-78
2023/01/07 09:09:58;;;;;;;0.43;0.00;;;10.20;99.90;;;;;;5012470;28;20045;-77
2023/01/07 09:12:23;;;;;;;0.25;0.00;;;10.40;99.90;;;;;;5014012;28;20503;-78
2023/01/07 09:14:49;;;;;;;0.65;0.00;;;10.20;99.90;;;;;;5013321;28;20388;-78
2023/01/07 09:17:14;;;;;;;0.47;0.00;;;10.30;99.90;;;;;;5015812;28;20061;-80
2023/01/07 09:19:40;;;;;;;0.65;0.00;;;10.30;99.90;;;;;;5017271;28;20052;-79
2023/01/07 09:22:06;;;;;;;1.30;0.30;;;10.30;99.90;;;;;;5016633;28;20030;-79
2023/01/07 09:24:31;;;;;;;0.80;0.30;;;10.30;99.90;;;;;;5015447;28;20094;-80
2023/01/07 09:26:57;;;;;;;0.13;0.03;;;10.30;99.90;;;;;;5013708;28;20062;-80
2023/01/07 09:29:22;;;;;;;0.10;0.00;;;10.40;99.90;;;;;;5016147;28;20436;-80
2023/01/07 09:31:48;;;;;;;0.00;0.00;;;10.50;99.90;;;;;;5016051;28;20022;-80
2023/01/07 09:34:13;;;;;;;0.35;0.00;;;10.40;99.90;;;;;;5016895;28;20157;-79
2023/01/07 09:36:39;;;;;;;0.20;0.20;;;10.50;99.90;;;;;;5017033;28;20026;-80
2023/01/07 09:39:04;;;;;;;0.35;0.00;;;10.50;99.90;;;;;;5015679;28;20026;-79
2023/01/07 09:41:36;;;;;;;0.10;0.00;;;10.70;99.90;;;;;;5015033;28;20029;-79
2023/01/07 09:44:37;;;;;;;0.10;0.08;;;10.50;99.90;;;;;;5016177;28;20025;-80
2023/01/07 09:47:05;;;;;;;0.22;0.00;;;10.50;99.90;;;;;;5015911;28;20477;-79
2023/01/07 09:49:32;;;;;;;0.00;0.00;;;10.60;99.90;;;;;;5016877;28;20029;-80
2023/01/07 09:52:24;;;;;;;0.60;0.00;;;10.60;99.90;;;;;;5017141;28;20104;-79
2023/01/07 09:54:57;;;;;;;0.40;0.00;;;10.60;99.90;;;;;;5011479;28;20068;-78
2023/01/07 09:57:23;;;;;;;0.95;0.00;;;10.70;99.90;;;;;;5017001;28;20173;-79
2023/01/07 09:59:48;;;;;;;0.22;0.00;;;10.70;99.90;;;;;;5014740;28;20061;-79
2023/01/07 10:02:32;;;;;;;1.35;0.00;;;10.70;99.90;;;;;;5014713;28;20081;-79
2023/01/07 10:05:16;;;;;;;0.47;0.00;;;10.70;99.90;;;;;;5014926;28;20030;-79
2023/01/07 10:07:59;;;;;;;0.00;0.00;;;10.70;99.90;;;;;;5016254;28;20190;-79
2023/01/07 10:10:37;;;;;;;0.80;0.00;;;10.80;99.90;;;;;;5015133;28;20026;-79
2023/01/07 10:13:34;;;;;;;0.08;0.00;;;10.80;99.90;;;;;;5017189;28;20026;-79
2023/01/07 10:16:33;;;;;;;0.32;0.00;;;10.80;99.90;;;;;;5015225;28;20025;-79
2023/01/07 10:19:34;;;;;;;0.90;0.00;;;10.80;99.90;;;;;;5015729;28;20420;-79
2023/01/07 10:22:09;;;;;;;0.10;0.00;;;10.90;99.90;;;;;;5015116;28;20034;-79
2023/01/07 10:24:41;;;;;;;0.00;0.00;;;10.90;99.90;;;;;;5016576;28;20049;-79
2023/01/07 10:27:12;;;;;;;0.00;0.00;;;10.90;99.90;;;;;;5018087;28;20112;-79
2023/01/07 10:29:49;;;;;;;1.05;0.00;;;10.90;99.90;;;;;;5016161;28;20026;-80
2023/01/07 10:32:21;;;;;;;4.38;0.00;;;11.00;99.90;;;;;;5014916;28;20018;-78
2023/01/07 10:34:54;;;;;;;1.17;0.00;;;11.00;99.90;;;;;;5015191;28;20030;-79
2023/01/07 10:37:28;;;;;;;0.45;0.00;;;11.00;99.90;;;;;;5016270;28;20018;-79
2023/01/07 10:40:05;;;;;;;0.55;0.00;;;11.10;99.90;;;;;;5015243;28;20026;-80
2023/01/07 10:42:37;;;;;;;0.00;0.00;;;11.10;99.90;;;;;;5014976;28;20053;-79
2023/01/07 10:45:14;;;;;;;0.73;0.00;;;11.20;99.90;;;;;;5015163;28;20113;-79
2023/01/07 10:47:57;;;;;;;0.17;0.00;;;11.20;99.90;;;;;;5019132;28;20022;-79
2023/01/07 10:50:41;;;;;;;0.70;0.00;;;11.20;99.90;;;;;;5019924;28;20030;-80
2023/01/07 10:54:03;;;;;;;0.57;0.00;;;11.20;99.90;;;;;;5017271;28;20025;-79
2023/01/07 10:56:46;;;;;;;0.03;0.00;;;11.30;99.90;;;;;;4962055;28;20062;-80
2023/01/07 10:59:30;;;;;;;0.00;0.00;;;11.30;99.90;;;;;;4961119;28;20544;-80
2023/01/07 11:01:57;;;;;;;0.30;0.00;;;11.40;99.90;;;;;;5007221;28;20439;-79
2023/01/07 11:04:26;;;;;;;0.65;0.00;;;11.40;99.90;;;;;;5017692;28;20022;-76
2023/01/07 11:07:06;;;;;;;0.43;0.20;;;11.40;99.90;;;;;;5017970;28;20080;-79
2023/01/07 11:09:40;;;;;;;0.40;0.00;;;11.40;99.90;;;;;;5016553;28;20484;-78
2023/01/07 11:12:23;;;;;;;0.57;0.00;;;11.40;99.90;;;;;;5017860;28;20030;-78
2023/01/07 11:14:50;;;;;;;0.10;0.00;;;11.30;99.90;;;;;;5018931;28;20018;-79
2023/01/07 11:17:31;;;;;;;0.00;0.00;;;11.30;99.90;;;;;;5017690;28;20045;-79
2023/01/07 11:19:57;;;;;;;0.55;0.00;;;11.30;99.90;;;;;;5018744;28;20026;-79
2023/01/07 11:22:25;;;;;;;0.20;0.00;;;11.30;99.90;;;;;;5018034;28;20519;-77
2023/01/07 11:24:56;;;;;;;0.00;0.00;;;11.30;99.90;;;;;;5016168;28;20030;-77
2023/01/07 11:27:25;;;;;;;0.10;0.00;;;11.30;99.90;;;;;;5014775;28;20028;-76
2023/01/07 11:30:09;;;;;;;;;;;11.40;99.90;;;;;;5016661;28;20099;-78
2023/01/07 11:32:39;;;;;;;1.38;0.00;;;11.40;99.90;;;;;;5014622;28;19906;-77
2023/01/07 11:35:17;;;;;;;0.68;0.00;;;11.50;99.90;;;;;;5014784;28;20022;-77
2023/01/07 11:37:47;;;;;;;1.65;0.00;;;11.60;99.90;;;;;;5016204;28;20037;-78
2023/01/07 11:40:12;;;;;;;0.25;0.00;;;11.70;99.90;;;;;;5016761;28;20357;-77
2023/01/07 11:42:52;;;;;;;0.55;0.00;;;11.70;99.90;;;;;;5014960;28;20036;-77
2023/01/07 11:45:20;;;;;;;0.38;0.10;;;11.80;99.90;;;;;;5016493;28;20030;-77
2023/01/07 11:47:57;;;;;;;1.75;0.00;;;11.80;99.90;;;;;;5015899;28;20370;-77
2023/01/07 11:50:53;;;;;;;0.20;0.00;;;11.80;99.90;;;;;;5015092;28;20030;-77
2023/01/07 11:53:22;;;;;;;1.00;0.00;;;11.80;99.90;;;;;;5011598;28;20467;-77
2023/01/07 11:55:58;;;;;;;0.10;0.00;;;11.90;99.90;;;;;;5015818;28;20432;-77
2023/01/07 11:58:29;;;;;;;0.65;0.00;;;12.00;99.90;;;;;;5015322;28;20492;-77
2023/01/07 12:01:07;;;;;;;0.70;0.00;;;12.00;99.90;;;;;;5015842;28;20029;-77
2023/01/07 12:03:43;;;;;;;0.03;0.00;;;12.10;99.90;;;;;;5016074;28;20029;-77
2023/01/07 12:06:16;;;;;;;2.35;0.00;;;12.10;99.90;;;;;;5015927;28;20026;-77
2023/01/07 12:08:49;;;;;;;0.10;0.00;;;12.10;99.90;;;;;;5014628;28;20100;-78
2023/01/07 12:11:15;;;;;;;0.98;0.05;;;12.10;99.90;;;;;;5015468;28;20072;-77
2023/01/07 12:13:47;;;;;;;0.75;0.25;;;12.10;99.90;;;;;;5014006;28;20026;-76
2023/01/07 12:16:14;;;;;;;0.50;0.15;;;12.00;99.90;;;;;;5014666;28;20489;-79
2023/01/07 12:19:15;;;;;;;0.43;0.00;;;12.00;99.90;;;;;;5014882;28;20030;-79
2023/01/07 12:21:46;;;;;;;0.20;0.00;;;11.90;99.90;;;;;;5016182;28;20026;-78
2023/01/07 12:24:28;;;;;;;0.20;0.00;;;;;;;;;;5016232;28;20105;-78
2023/01/07 12:27:05;;;;;;;0.75;0.00;;;11.80;99.90;;;;;;5015454;28;20073;-78
2023/01/07 12:30:10;;;;;;;1.40;0.00;;;11.70;99.90;;;;;;5014178;28;20026;-78
2023/01/07 12:32:54;;;;;;;0.00;0.00;;;11.60;99.90;;;;;;5015106;28;20029;-77
2023/01/07 12:35:30;;;;;;;0.10;0.00;;;11.60;99.90;;;;;;5014022;28;20032;-78
2023/01/07 12:38:02;;;;;;;0.20;0.00;;;11.60;99.90;;;;;;5015468;28;20030;-78
2023/01/07 12:40:34;;;;;;;0.00;0.00;;;11.60;99.90;;;;;;5013597;28;20029;-78
2023/01/07 12:43:17;;;;;;;0.13;0.00;;;11.60;99.90;;;;;;5014350;28;20389;-79
2023/01/07 12:45:50;;;;;;;0.40;0.00;;;11.60;99.90;;;;;;5013945;28;20038;-78
2023/01/07 12:48:25;;;;;;;0.80;0.10;;;11.60;99.90;;;;;;5014377;28;20108;-78
2023/01/07 12:50:54;;;;;;;0.20;0.15;;;11.70;99.90;;;;;;5015424;28;20393;-79
2023/01/07 12:53:24;;;;;;;0.30;0.00;;;11.70;99.90;;;;;;5014473;28;20021;-78
2023/01/07 12:56:06;;;;;;;0.13;0.00;;;11.70;99.90;;;;;;5015095;28;20049;-77
2023/01/07 12:58:37;;;;;;;0.32;0.00;;;11.70;99.90;;;;;;5013932;28;20022;-78
2023/01/07 13:01:28;;;;;;;0.22;0.00;;;11.60;99.90;;;;;;5013404;28;20026;-78
2023/01/07 13:04:12;;;;;;;0.00;0.00;;;11.60;99.90;;;;;;5015065;28;20400;-78
2023/01/07 13:06:47;;;;;;;0.13;0.00;;;11.70;99.90;;;;;;5016584;28;20030;-78
2023/01/07 13:09:46;;;;;;;0.68;0.10;;;11.60;99.90;;;;;;5013719;28;20086;-79
2023/01/07 13:12:47;;;;;;;0.45;0.10;;;11.60;99.90;;;;;;5015876;28;20029;-78
2023/01/07 13:15:21;;;;;;;0.13;0.00;;;11.60;99.90;;;;;;5014904;28;20029;-79
2023/01/07 13:17:48;;;;;;;0.20;0.00;;;11.60;99.90;;;;;;5013926;28;20093;-78
2023/01/07 13:20:17;;;;;;;1.02;0.00;;;12.60;99.90;;;;;;5014256;28;20057;-78
2023/01/07 13:22:50;;;;;;;;;;;11.60;99.90;;;;;;5016285;28;20021;-79